createdAt,value
2018-09-12T00:01:49.152Z,21.91
2018-09-12T00:04:17.997Z,21.84
2018-09-12T00:06:47.016Z,22.00
2018-09-12T00:09:15.822Z,21.97
2018-09-12T00:11:44.640Z,21.91
2018-09-12T00:14:13.638Z,21.94
2018-09-12T00:16:42.513Z,22.11
2018-09-12T00:19:11.398Z,22.17
2018-09-12T00:21:40.346Z,22.01
2018-09-12T00:24:09.211Z,21.86
2018-09-12T00:26:37.924Z,21.81
2018-09-12T00:29:07.106Z,21.92
2018-09-12T00:31:35.965Z,21.85
2018-09-12T00:34:04.620Z,21.80
2018-09-12T00:36:33.616Z,21.91
2018-09-12T00:39:02.646Z,21.68
2018-09-12T00:41:31.537Z,21.70
2018-09-12T00:44:00.228Z,21.50
2018-09-12T00:46:29.211Z,21.28
2018-09-12T00:48:58.521Z,21.26
2018-09-12T00:51:27.296Z,21.32
2018-09-12T00:53:56.296Z,21.44
2018-09-12T00:56:25.433Z,21.50
2018-09-12T00:58:54.691Z,21.48
2018-09-12T01:01:23.577Z,21.32
2018-09-12T01:03:52.342Z,21.45
2018-09-12T01:06:21.705Z,21.41
2018-09-12T01:08:53.318Z,21.42
2018-09-12T01:11:23.984Z,21.46
2018-09-12T01:13:53.902Z,21.38
2018-09-12T01:16:23.224Z,21.44
2018-09-12T01:18:52.131Z,21.34
2018-09-12T01:21:21.067Z,21.34
2018-09-12T01:23:49.880Z,21.31
2018-09-12T01:26:18.803Z,21.28
2018-09-12T01:28:47.857Z,21.38
2018-09-12T01:31:16.808Z,21.39
2018-09-12T01:33:45.663Z,21.24
2018-09-12T01:36:14.296Z,21.24
2018-09-12T01:38:43.195Z,21.07
2018-09-12T01:41:13.053Z,21.02
2018-09-12T01:43:41.959Z,20.97
2018-09-12T01:46:10.862Z,21.15
2018-09-12T01:48:39.463Z,21.22
2018-09-12T01:51:08.682Z,21.20
2018-09-12T01:53:37.544Z,21.12
2018-09-12T01:56:06.446Z,20.90
2018-09-12T01:58:35.674Z,21.13
2018-09-12T02:01:04.649Z,21.14
2018-09-12T02:03:33.720Z,21.23
2018-09-12T02:06:02.641Z,21.18
2018-09-12T02:08:31.526Z,21.03
2018-09-12T02:11:01.373Z,21.06
2018-09-12T02:13:30.967Z,20.95
2018-09-12T02:16:00.313Z,20.94
2018-09-12T02:18:29.318Z,20.98
2018-09-12T02:20:58.215Z,20.79
2018-09-12T02:23:27.228Z,20.85
2018-09-12T02:25:56.305Z,20.70
2018-09-12T02:28:25.194Z,20.70
2018-09-12T02:30:54.825Z,20.78
2018-09-12T02:33:23.798Z,20.72
2018-09-12T02:35:57.790Z,20.58
2018-09-12T02:38:26.582Z,20.71
2018-09-12T02:40:55.522Z,20.86
2018-09-12T02:43:24.564Z,20.94
2018-09-12T02:45:53.628Z,20.81
2018-09-12T02:48:22.664Z,20.84
2018-09-12T02:50:51.515Z,20.82
2018-09-12T02:53:20.363Z,20.80
2018-09-12T02:55:49.350Z,20.71
2018-09-12T02:58:18.359Z,20.75
2018-09-12T03:00:47.434Z,20.82
2018-09-12T03:03:16.849Z,20.80
2018-09-12T03:05:45.658Z,20.66
2018-09-12T03:08:14.574Z,20.63
2018-09-12T03:13:09.699Z,20.74
2018-09-12T03:15:38.609Z,20.37
2018-09-12T03:18:07.652Z,20.60
2018-09-12T03:20:38.305Z,20.66
2018-09-12T03:23:07.062Z,20.42
2018-09-12T03:25:36.492Z,20.41
2018-09-12T03:28:05.712Z,20.61
2018-09-12T03:30:34.870Z,20.35
2018-09-12T03:33:03.680Z,20.55
2018-09-12T03:35:32.611Z,20.71
2018-09-12T03:38:01.395Z,20.83
2018-09-12T03:40:30.366Z,20.90
2018-09-12T03:42:59.717Z,20.81
2018-09-12T03:45:28.661Z,20.65
2018-09-12T03:47:58.007Z,20.58
2018-09-12T03:50:26.879Z,20.60
2018-09-12T03:52:56.018Z,20.54
2018-09-12T03:55:25.616Z,20.55
2018-09-12T03:57:54.776Z,20.45
2018-09-12T04:00:23.923Z,20.46
2018-09-12T04:02:53.072Z,20.25
2018-09-12T04:05:21.973Z,20.16
2018-09-12T04:07:50.968Z,20.18
2018-09-12T04:10:19.931Z,20.26
2018-09-12T04:12:49.479Z,20.25
2018-09-12T04:15:18.651Z,20.24
2018-09-12T04:17:47.561Z,20.18
2018-09-12T04:20:16.375Z,20.17
2018-09-12T04:22:45.355Z,20.23
2018-09-12T04:25:15.025Z,20.18
2018-09-12T04:27:43.978Z,20.24
2018-09-12T04:30:13.135Z,20.33
2018-09-12T04:32:42.100Z,20.55
2018-09-12T04:35:11.010Z,20.28
2018-09-12T04:37:40.043Z,20.30
2018-09-12T04:40:09.207Z,20.36
2018-09-12T04:42:37.867Z,20.33
2018-09-12T04:45:07.113Z,20.44
2018-09-12T04:47:36.037Z,20.18
2018-09-12T04:50:05.112Z,20.35
2018-09-12T04:52:34.121Z,20.22
2018-09-12T04:55:02.897Z,20.29
2018-09-12T04:57:31.977Z,20.23
2018-09-12T05:00:01.189Z,20.17
2018-09-12T05:02:30.126Z,20.17
2018-09-12T05:04:59.571Z,20.11
2018-09-12T05:07:28.260Z,20.28
2018-09-12T05:09:57.489Z,20.30
2018-09-12T05:12:26.412Z,20.40
2018-09-12T05:14:55.287Z,20.12
2018-09-12T05:17:24.102Z,20.23
2018-09-12T05:19:53.204Z,20.32
2018-09-12T05:22:22.768Z,20.38
2018-09-12T05:24:51.763Z,20.66
2018-09-12T05:27:20.668Z,20.47
2018-09-12T05:29:49.676Z,20.47
2018-09-12T05:32:18.798Z,20.60
2018-09-12T05:34:47.731Z,21.10
2018-09-12T05:37:16.418Z,22.00
2018-09-12T05:39:45.360Z,22.06
2018-09-12T05:42:14.397Z,21.66
2018-09-12T05:44:43.345Z,21.32
2018-09-12T05:47:12.184Z,21.19
2018-09-12T05:49:41.389Z,22.18
2018-09-12T05:52:10.514Z,23.11
2018-09-12T05:54:39.383Z,23.90
2018-09-12T05:57:08.458Z,24.35
2018-09-12T05:59:37.579Z,24.30
2018-09-12T06:02:07.173Z,24.38
2018-09-12T06:04:36.011Z,24.28
2018-09-12T06:07:05.175Z,23.37
2018-09-12T06:09:34.209Z,22.86
2018-09-12T06:12:03.088Z,22.72
2018-09-12T06:14:31.929Z,22.65
2018-09-12T06:17:00.848Z,22.34
2018-09-12T06:19:29.590Z,22.41
2018-09-12T06:21:58.621Z,22.47
2018-09-12T06:24:27.598Z,22.27
2018-09-12T06:26:56.418Z,22.11
2018-09-12T06:29:25.393Z,22.15
2018-09-12T06:31:54.287Z,22.27
2018-09-12T06:34:23.082Z,22.25
2018-09-12T06:36:51.918Z,22.46
2018-09-12T06:39:20.986Z,22.44
2018-09-12T06:41:49.782Z,22.67
2018-09-12T06:44:18.569Z,22.67
2018-09-12T06:46:47.485Z,22.87
2018-09-12T06:49:16.472Z,23.17
2018-09-12T06:51:46.003Z,23.11
2018-09-12T06:54:15.108Z,23.05
2018-09-12T06:56:44.123Z,23.11
2018-09-12T06:59:14.970Z,23.23
2018-09-12T07:01:44.154Z,23.49
2018-09-12T07:04:12.967Z,23.64
2018-09-12T07:06:42.569Z,23.57
2018-09-12T07:09:12.178Z,23.53
2018-09-12T07:11:41.187Z,24.03
2018-09-12T07:14:10.215Z,24.27
2018-09-12T07:16:39.296Z,24.36
2018-09-12T07:19:08.250Z,24.51
2018-09-12T07:21:37.221Z,24.64
2018-09-12T07:24:06.076Z,24.86
2018-09-12T07:26:35.109Z,24.98
2018-09-12T07:29:04.792Z,25.13
2018-09-12T07:31:33.856Z,25.25
2018-09-12T07:34:02.755Z,25.55
2018-09-12T07:36:32.139Z,25.87
2018-09-12T07:39:01.007Z,25.67
2018-09-12T07:41:30.114Z,25.45
2018-09-12T07:43:59.151Z,25.71
2018-09-12T07:46:27.996Z,26.27
2018-09-12T07:48:56.720Z,26.38
2018-09-12T07:51:26.203Z,26.56
2018-09-12T07:53:55.920Z,26.59
2018-09-12T07:56:24.732Z,26.81
2018-09-12T07:58:53.648Z,26.70
2018-09-12T08:01:22.612Z,26.80
2018-09-12T08:03:51.563Z,26.89
2018-09-12T08:06:20.735Z,27.36
2018-09-12T08:08:49.561Z,27.77
2018-09-12T08:11:18.460Z,27.72
2018-09-12T08:13:47.861Z,27.66
2018-09-12T08:16:16.553Z,28.09
2018-09-12T08:18:45.392Z,28.17
2018-09-12T08:21:14.247Z,28.12
2018-09-12T08:23:43.015Z,28.33
2018-09-12T08:26:12.040Z,28.71
2018-09-12T08:28:40.744Z,28.88
2018-09-12T08:31:10.171Z,28.71
2018-09-12T08:33:38.958Z,29.01
2018-09-12T08:36:07.799Z,28.91
2018-09-12T08:38:36.714Z,29.20
2018-09-12T08:41:05.837Z,29.50
2018-09-12T08:43:34.580Z,29.28
2018-09-12T08:46:03.289Z,29.57
2018-09-12T08:48:32.098Z,29.64
2018-09-12T08:51:00.886Z,29.73
2018-09-12T08:53:29.884Z,29.92
2018-09-12T08:55:58.870Z,29.84
2018-09-12T08:58:27.647Z,29.49
2018-09-12T09:00:56.684Z,29.99
2018-09-12T09:03:25.646Z,29.90
2018-09-12T09:05:55.393Z,30.47
2018-09-12T09:08:24.554Z,30.79
2018-09-12T09:10:53.631Z,30.65
2018-09-12T09:13:22.466Z,30.89
2018-09-12T09:15:51.520Z,31.11
2018-09-12T09:18:20.656Z,30.53
2018-09-12T09:20:49.556Z,30.88
2018-09-12T09:23:18.506Z,31.27
2018-09-12T09:25:47.516Z,31.43
2018-09-12T09:28:16.291Z,31.45
2018-09-12T09:30:45.354Z,31.76
2018-09-12T09:33:14.286Z,32.04
2018-09-12T09:35:43.371Z,31.36
2018-09-12T09:38:12.222Z,31.88
2018-09-12T09:40:42.047Z,31.33
2018-09-12T09:43:10.926Z,31.63
2018-09-12T09:45:39.824Z,31.84
2018-09-12T09:48:08.780Z,31.96
2018-09-12T09:50:37.671Z,32.60
2018-09-12T09:53:06.292Z,32.82
2018-09-12T09:55:35.017Z,32.12
2018-09-12T09:58:03.997Z,32.49
2018-09-12T10:00:37.979Z,32.71
2018-09-12T10:03:13.155Z,32.39
2018-09-12T10:05:47.183Z,32.72
2018-09-12T10:08:21.177Z,32.91
2018-09-12T10:10:50.203Z,33.32
2018-09-12T10:13:18.890Z,32.92
2018-09-12T10:15:47.707Z,32.97
2018-09-12T10:18:16.454Z,33.04
2018-09-12T10:20:45.256Z,33.11
2018-09-12T10:23:14.182Z,33.43
2018-09-12T10:25:42.971Z,33.79
2018-09-12T10:28:11.810Z,33.97
2018-09-12T10:30:40.723Z,33.47
2018-09-12T10:33:09.648Z,33.21
2018-09-12T10:35:38.313Z,33.88
2018-09-12T10:38:07.061Z,33.89
2018-09-12T10:40:35.952Z,34.32
2018-09-12T10:43:04.888Z,34.13
2018-09-12T10:45:34.275Z,34.12
2018-09-12T10:48:03.295Z,34.62
2018-09-12T10:50:32.073Z,35.08
2018-09-12T10:53:01.406Z,34.67
2018-09-12T10:55:30.274Z,34.81
2018-09-12T10:57:59.356Z,34.58
2018-09-12T11:00:28.473Z,34.27
2018-09-12T11:02:57.284Z,34.65
2018-09-12T11:05:26.232Z,35.31
2018-09-12T11:07:55.148Z,34.79
2018-09-12T11:10:24.122Z,34.48
2018-09-12T11:12:52.863Z,34.95
2018-09-12T11:15:22.467Z,34.35
2018-09-12T11:17:51.390Z,34.44
2018-09-12T11:20:20.591Z,34.74
2018-09-12T11:22:50.103Z,35.04
2018-09-12T11:25:19.090Z,35.36
2018-09-12T11:27:48.281Z,35.58
2018-09-12T11:30:18.547Z,34.92
2018-09-12T11:32:47.774Z,35.70
2018-09-12T11:35:17.141Z,35.65
2018-09-12T11:37:45.963Z,35.77
2018-09-12T11:40:14.861Z,35.76
2018-09-12T11:42:43.650Z,37.06
2018-09-12T11:45:12.633Z,37.27
2018-09-12T11:47:41.443Z,38.35
2018-09-12T11:50:10.145Z,37.66
2018-09-12T11:52:38.986Z,37.65
2018-09-12T11:55:08.660Z,39.30
2018-09-12T11:57:38.128Z,39.55
2018-09-12T12:00:07.799Z,40.71
2018-09-12T12:02:42.608Z,42.40
2018-09-12T12:05:11.533Z,43.07
2018-09-12T12:07:42.029Z,43.40
2018-09-12T12:10:10.929Z,44.81
2018-09-12T12:12:40.020Z,45.33
2018-09-12T12:15:09.191Z,45.56
2018-09-12T12:17:38.653Z,47.41
2018-09-12T12:20:07.880Z,47.86
2018-09-12T12:22:36.681Z,49.52
2018-09-12T12:25:06.168Z,49.18
2018-09-12T12:27:35.293Z,46.99
2018-09-12T12:30:04.281Z,46.96
2018-09-12T12:32:33.122Z,46.37
2018-09-12T12:35:02.076Z,49.41
2018-09-12T12:37:30.878Z,50.34
2018-09-12T12:39:59.597Z,52.50
2018-09-12T12:42:28.301Z,51.62
2018-09-12T12:44:57.185Z,51.45
2018-09-12T12:47:25.885Z,50.40
2018-09-12T12:49:54.997Z,50.57
2018-09-12T12:52:24.039Z,49.16
2018-09-12T12:54:52.937Z,48.92
2018-09-12T12:57:21.941Z,49.02
2018-09-12T12:59:50.773Z,51.10
2018-09-12T13:02:19.723Z,50.36
2018-09-12T13:04:48.506Z,51.92
2018-09-12T13:07:17.907Z,50.57
2018-09-12T13:09:46.631Z,48.07
2018-09-12T13:12:15.811Z,47.84
2018-09-12T13:14:44.753Z,47.54
2018-09-12T13:17:13.470Z,49.37
2018-09-12T13:19:42.242Z,48.65
2018-09-12T13:22:11.063Z,47.87
2018-09-12T13:24:39.960Z,48.25
2018-09-12T13:27:08.765Z,51.05
2018-09-12T13:29:37.831Z,51.40
2018-09-12T13:32:06.612Z,47.40
2018-09-12T13:34:35.946Z,49.52
2018-09-12T13:37:05.415Z,46.62
2018-09-12T13:39:34.350Z,47.54
2018-09-12T13:42:03.323Z,48.71
2018-09-12T13:44:32.323Z,47.43
2018-09-12T13:47:01.513Z,49.90
2018-09-12T13:49:30.237Z,52.49
2018-09-12T13:51:59.321Z,53.63
2018-09-12T13:54:28.161Z,51.58
2018-09-12T13:56:57.095Z,50.77
2018-09-12T13:59:25.881Z,50.12
2018-09-12T14:05:00.255Z,50.38
2018-09-12T14:07:29.070Z,49.00
2018-09-12T14:09:57.892Z,48.13
2018-09-12T14:12:26.661Z,48.71
2018-09-12T14:14:55.755Z,49.70
2018-09-12T14:17:24.714Z,47.68
2018-09-12T14:19:53.711Z,47.48
2018-09-12T14:22:22.670Z,49.90
2018-09-12T14:24:51.543Z,50.54
2018-09-12T14:27:20.545Z,44.88
2018-09-12T14:29:49.319Z,46.24
2018-09-12T14:32:18.651Z,47.77
2018-09-12T14:34:47.536Z,48.77
2018-09-12T14:37:16.429Z,48.84
2018-09-12T14:39:45.377Z,48.74
2018-09-12T14:42:14.245Z,49.24
2018-09-12T14:44:42.920Z,48.01
2018-09-12T14:47:11.760Z,49.52
2018-09-12T14:49:41.057Z,50.77
2018-09-12T14:52:09.928Z,47.80
2018-09-12T14:54:38.958Z,46.55
2018-09-12T14:57:07.811Z,46.49
2018-09-12T14:59:36.904Z,46.85
2018-09-12T15:02:06.048Z,45.66
2018-09-12T15:04:35.009Z,45.44
2018-09-12T15:07:03.819Z,44.57
2018-09-12T15:09:32.643Z,43.39
2018-09-12T15:12:01.427Z,42.67
2018-09-12T15:14:30.466Z,42.90
2018-09-12T15:16:59.391Z,42.34
2018-09-12T15:19:28.472Z,43.46
2018-09-12T15:21:57.246Z,40.88
2018-09-12T15:24:26.244Z,41.32
2018-09-12T15:26:55.463Z,40.58
2018-09-12T15:29:24.307Z,41.18
2018-09-12T15:31:53.012Z,40.22
2018-09-12T15:34:21.818Z,40.57
2018-09-12T15:36:50.914Z,41.04
2018-09-12T15:39:19.966Z,40.98
2018-09-12T15:41:48.663Z,41.17
2018-09-12T15:44:17.442Z,41.44
2018-09-12T15:46:46.475Z,40.69
2018-09-12T15:49:16.126Z,40.07
2018-09-12T15:51:45.558Z,39.90
2018-09-12T15:54:14.173Z,39.53
2018-09-12T15:56:43.317Z,39.40
2018-09-12T15:59:12.595Z,39.06
2018-09-12T16:01:42.331Z,38.95
2018-09-12T16:04:11.322Z,38.96
2018-09-12T16:06:40.331Z,38.55
2018-09-12T16:09:10.179Z,38.24
2018-09-12T16:11:38.760Z,39.61
2018-09-12T16:14:07.576Z,40.74
2018-09-12T16:16:36.420Z,42.05
2018-09-12T16:19:06.010Z,43.35
2018-09-12T16:21:34.912Z,43.38
2018-09-12T16:24:03.785Z,41.83
2018-09-12T16:26:32.503Z,40.99
2018-09-12T16:29:01.441Z,39.24
2018-09-12T16:31:30.947Z,39.10
2018-09-12T16:33:59.876Z,38.90
2018-09-12T16:36:29.206Z,38.66
2018-09-12T16:38:58.090Z,38.34
2018-09-12T16:41:26.984Z,38.41
2018-09-12T16:43:55.868Z,38.22
2018-09-12T16:46:24.909Z,37.90
2018-09-12T16:48:54.178Z,37.80
2018-09-12T16:51:23.189Z,37.41
2018-09-12T16:53:51.928Z,37.25
2018-09-12T16:56:20.800Z,36.98
2018-09-12T16:58:49.782Z,36.86
2018-09-12T17:01:18.606Z,36.56
2018-09-12T17:03:47.914Z,36.37
2018-09-12T17:06:17.029Z,36.04
2018-09-12T17:08:46.171Z,35.70
2018-09-12T17:14:05.931Z,35.34
2018-09-12T17:16:34.769Z,35.02
2018-09-12T17:19:03.951Z,34.75
2018-09-12T17:21:33.037Z,34.53
2018-09-12T17:24:02.445Z,34.31
2018-09-12T17:26:31.293Z,34.13
2018-09-12T17:29:00.391Z,33.86
2018-09-12T17:34:22.516Z,33.47
2018-09-12T17:39:44.384Z,32.92
2018-09-12T17:42:13.082Z,32.71
2018-09-12T17:44:41.839Z,32.49
2018-09-12T17:47:10.911Z,32.33
2018-09-12T17:49:39.912Z,32.24
2018-09-12T17:57:54.329Z,31.68
2018-09-12T18:00:23.370Z,31.63
2018-09-12T18:02:52.325Z,31.47
2018-09-12T18:05:21.224Z,31.37
2018-09-12T18:07:50.324Z,31.25
2018-09-12T18:10:19.294Z,31.08
2018-09-12T18:16:05.512Z,30.87
2018-09-12T18:18:34.267Z,30.77
2018-09-12T18:21:03.316Z,30.71
2018-09-12T18:23:32.956Z,30.65
2018-09-12T18:26:01.771Z,30.56
2018-09-12T18:28:30.843Z,30.53
2018-09-12T18:31:00.311Z,30.68
2018-09-12T18:33:29.121Z,30.58
2018-09-12T18:41:42.054Z,30.67
2018-09-12T18:47:01.964Z,30.48
2018-09-12T18:52:22.064Z,30.55
2018-09-12T18:54:51.362Z,30.53
2018-09-12T18:57:20.158Z,30.44
2018-09-12T18:59:48.933Z,30.38
2018-09-12T19:02:18.007Z,30.34
2018-09-12T19:07:37.669Z,30.24
2018-09-12T19:10:06.443Z,30.16
2018-09-12T19:12:35.555Z,30.06
2018-09-12T19:15:04.563Z,30.00
2018-09-12T19:17:33.472Z,29.91
2018-09-12T19:22:53.019Z,29.89
2018-09-12T19:25:22.571Z,29.86
2018-09-12T19:27:51.924Z,29.81
2018-09-12T19:30:21.223Z,29.71
2018-09-12T19:32:50.683Z,29.71
2018-09-12T19:35:19.686Z,29.64
2018-09-12T19:37:49.594Z,29.70
2018-09-12T19:40:18.702Z,29.76
2018-09-12T19:42:47.547Z,29.82
2018-09-12T19:45:16.752Z,29.66
2018-09-12T19:47:45.755Z,29.65
2018-09-12T19:50:15.564Z,29.65
2018-09-12T19:52:44.669Z,29.47
2018-09-12T19:55:13.541Z,29.52
2018-09-12T19:57:42.650Z,29.52
2018-09-12T20:00:16.249Z,29.60
2018-09-12T20:02:45.995Z,29.45
2018-09-12T20:05:15.437Z,29.36
2018-09-12T20:10:47.733Z,29.53
2018-09-12T20:13:18.125Z,29.40
2018-09-12T20:15:47.180Z,29.51
2018-09-12T20:18:16.218Z,29.52
2018-09-12T20:20:45.338Z,29.42
2018-09-12T20:23:14.331Z,29.47
2018-09-12T20:25:43.625Z,29.44
2018-09-12T20:28:15.619Z,29.25
2018-09-12T20:30:44.796Z,28.82
2018-09-12T20:33:13.652Z,28.23
2018-09-12T20:35:43.021Z,27.82
2018-09-12T20:38:11.974Z,27.63
2018-09-12T20:40:40.968Z,27.70
2018-09-12T20:43:09.969Z,27.97
2018-09-12T20:45:39.253Z,28.42
2018-09-12T20:48:08.258Z,27.80
2018-09-12T20:50:37.368Z,28.20
2018-09-12T20:53:06.425Z,27.97
2018-09-12T20:55:35.589Z,28.32
2018-09-12T20:58:06.639Z,27.08
2018-09-12T21:00:35.652Z,27.47
2018-09-12T21:03:04.818Z,26.66
2018-09-12T21:05:33.891Z,26.57
2018-09-12T21:08:03.703Z,26.56
2018-09-12T21:10:34.351Z,26.94
2018-09-12T21:13:03.605Z,27.33
2018-09-12T21:15:32.780Z,27.38
2018-09-12T21:18:03.021Z,27.53
2018-09-12T21:20:32.633Z,27.19
2018-09-12T21:23:04.432Z,27.43
2018-09-12T21:25:33.631Z,27.62
2018-09-12T21:28:02.812Z,27.31
2018-09-12T21:30:31.809Z,27.64
2018-09-12T21:33:01.381Z,27.77
2018-09-12T21:35:30.504Z,28.20
2018-09-12T21:37:59.504Z,27.81
2018-09-12T21:40:28.608Z,28.05
2018-09-12T21:42:57.798Z,28.24
2018-09-12T21:45:26.714Z,28.04
2018-09-12T21:47:55.740Z,27.87
2018-09-12T21:50:24.829Z,27.92
2018-09-12T21:52:53.776Z,28.15
2018-09-12T21:55:22.843Z,28.23
2018-09-12T21:57:51.959Z,28.09
2018-09-12T22:00:20.781Z,27.89
2018-09-12T22:02:50.259Z,27.80
2018-09-12T22:05:19.821Z,27.90
2018-09-12T22:07:48.817Z,27.76
2018-09-12T22:10:17.940Z,27.63
2018-09-12T22:12:46.868Z,27.39
2018-09-12T22:15:16.148Z,27.53
2018-09-12T22:17:45.164Z,27.59
2018-09-12T22:20:14.453Z,27.38
2018-09-12T22:22:43.467Z,27.04
2018-09-12T22:25:12.565Z,26.65
2018-09-12T22:27:41.282Z,26.04
2018-09-12T22:30:10.592Z,25.39
2018-09-12T22:32:40.265Z,25.03
2018-09-12T22:35:09.746Z,25.17
2018-09-12T22:37:38.900Z,25.32
2018-09-12T22:40:08.102Z,25.33
2018-09-12T22:42:37.215Z,25.59
2018-09-12T22:45:06.094Z,25.47
2018-09-12T22:47:34.947Z,25.53
2018-09-12T22:50:03.866Z,25.85
2018-09-12T22:52:32.606Z,26.01
2018-09-12T22:55:04.898Z,25.98
2018-09-12T22:57:36.685Z,25.78
2018-09-12T23:00:06.534Z,25.60
2018-09-12T23:02:35.503Z,25.25
2018-09-12T23:05:04.603Z,25.30
2018-09-12T23:07:33.462Z,25.28
2018-09-12T23:10:02.550Z,25.27
2018-09-12T23:12:31.267Z,25.31
2018-09-12T23:15:00.209Z,25.26
2018-09-12T23:17:29.451Z,25.51
2018-09-12T23:19:58.328Z,25.21
2018-09-12T23:22:27.266Z,24.85
2018-09-12T23:24:56.447Z,25.06
2018-09-12T23:27:25.314Z,25.11
2018-09-12T23:29:54.522Z,24.98
2018-09-12T23:32:23.617Z,24.85
2018-09-12T23:34:52.493Z,24.82
2018-09-12T23:37:21.615Z,24.75
2018-09-12T23:39:50.603Z,24.74
2018-09-12T23:42:19.790Z,24.72
2018-09-12T23:44:48.705Z,24.73
2018-09-12T23:47:17.804Z,24.43
2018-09-12T23:49:53.146Z,24.54
2018-09-12T23:52:22.587Z,24.84
2018-09-12T23:54:51.713Z,25.00
2018-09-12T23:57:20.735Z,24.98
2018-09-12T23:59:49.679Z,24.91
